createdAt,value
2023-09-18T00:00:13.692Z,23.95
2023-09-18T00:00:46.734Z,22.70
2023-09-18T00:01:21.443Z,21.85
2023-09-18T00:01:53.864Z,22.10
2023-09-18T00:02:26.470Z,23.10
2023-09-18T00:02:58.906Z,23.45
2023-09-18T00:03:31.336Z,22.15
2023-09-18T00:04:04.196Z,20.77
2023-09-18T00:04:36.706Z,22.37
2023-09-18T00:05:09.219Z,25.90
2023-09-18T00:05:45.558Z,22.27
2023-09-18T00:06:18.162Z,23.85
2023-09-18T00:06:50.559Z,26.45
2023-09-18T00:07:23.613Z,25.38
2023-09-18T00:07:55.961Z,27.35
2023-09-18T00:08:28.521Z,22.60
2023-09-18T00:09:01.155Z,24.10
2023-09-18T00:09:33.649Z,27.67
2023-09-18T00:10:06.271Z,22.80
2023-09-18T00:10:38.860Z,25.77
2023-09-18T00:11:12.115Z,22.70
2023-09-18T00:11:44.950Z,27.00
2023-09-18T00:12:17.328Z,26.27
2023-09-18T00:12:49.968Z,23.10
2023-09-18T00:13:23.174Z,24.50
2023-09-18T00:13:55.915Z,21.77
2023-09-18T00:14:28.777Z,24.70
2023-09-18T00:15:01.402Z,24.75
2023-09-18T00:15:34.033Z,25.03
2023-09-18T00:16:06.764Z,24.35
2023-09-18T00:16:52.051Z,27.70
2023-09-18T00:17:30.912Z,33.60
2023-09-18T00:18:03.662Z,33.25
2023-09-18T00:18:36.165Z,29.50
2023-09-18T00:19:12.008Z,25.50
2023-09-18T00:19:44.809Z,24.00
2023-09-18T00:20:20.946Z,22.60
2023-09-18T00:20:53.436Z,24.20
2023-09-18T00:21:26.772Z,23.27
2023-09-18T00:22:02.175Z,24.73
2023-09-18T00:22:35.348Z,23.75
2023-09-18T00:23:07.737Z,25.42
2023-09-18T00:23:40.266Z,23.67
2023-09-18T00:24:13.303Z,23.83
2023-09-18T00:24:49.800Z,25.02
2023-09-18T00:25:22.509Z,23.92
2023-09-18T00:25:54.896Z,24.08
2023-09-18T00:26:27.343Z,25.23
2023-09-18T00:26:59.981Z,24.50
2023-09-18T00:27:34.301Z,24.13
2023-09-18T00:28:06.952Z,26.02
2023-09-18T00:28:39.685Z,25.38
2023-09-18T00:29:12.060Z,23.00
2023-09-18T00:29:44.791Z,24.23
2023-09-18T00:30:17.469Z,23.77
2023-09-18T00:30:51.246Z,22.73
2023-09-18T00:31:23.693Z,25.50
2023-09-18T00:31:56.223Z,24.23
2023-09-18T00:32:29.487Z,22.90
2023-09-18T00:33:02.251Z,24.08
2023-09-18T00:33:34.802Z,24.05
2023-09-18T00:34:07.250Z,22.23
2023-09-18T00:34:39.453Z,22.25
2023-09-18T00:35:11.930Z,20.15
2023-09-18T00:35:50.811Z,22.23
2023-09-18T00:36:23.127Z,21.27
2023-09-18T00:36:55.646Z,24.20
2023-09-18T00:37:28.062Z,22.08
2023-09-18T00:38:03.865Z,20.93
2023-09-18T00:38:36.278Z,20.42
2023-09-18T00:39:09.526Z,22.23
2023-09-18T00:39:43.702Z,24.08
2023-09-18T00:40:16.148Z,21.45
2023-09-18T00:40:49.615Z,23.27
2023-09-18T00:41:22.284Z,20.25
2023-09-18T00:41:55.539Z,21.85
2023-09-18T00:42:27.903Z,19.25
2023-09-18T00:43:00.607Z,20.23
2023-09-18T00:43:33.063Z,20.13
2023-09-18T00:44:06.938Z,21.75
2023-09-18T00:44:39.349Z,19.48
2023-09-18T00:45:11.792Z,20.77
2023-09-18T00:45:45.909Z,21.08
2023-09-18T00:46:18.528Z,21.58
2023-09-18T00:46:51.212Z,22.15
2023-09-18T00:47:23.947Z,19.73
2023-09-18T00:47:56.486Z,20.38
2023-09-18T00:48:29.755Z,22.63
2023-09-18T00:49:02.274Z,22.17
2023-09-18T00:49:35.556Z,23.10
2023-09-18T00:50:09.640Z,22.33
2023-09-18T00:50:42.474Z,25.85
2023-09-18T00:51:15.090Z,20.88
2023-09-18T00:51:48.747Z,20.42
2023-09-18T00:52:21.805Z,20.30
2023-09-18T00:52:54.186Z,21.45
2023-09-18T00:53:27.327Z,23.30
2023-09-18T00:54:00.743Z,22.27
2023-09-18T00:54:33.830Z,24.07
2023-09-18T00:55:07.994Z,20.27
2023-09-18T00:55:40.555Z,24.95
2023-09-18T00:56:13.443Z,21.33
2023-09-18T00:56:46.590Z,22.75
2023-09-18T00:57:19.563Z,20.40
2023-09-18T00:57:52.020Z,22.98
2023-09-18T00:58:24.964Z,22.70
2023-09-18T00:58:57.708Z,22.83
2023-09-18T00:59:30.302Z,22.27
2023-09-18T01:00:05.628Z,23.43
2023-09-18T01:00:40.104Z,24.60
2023-09-18T01:01:13.288Z,23.25
2023-09-18T01:01:45.970Z,24.85
2023-09-18T01:02:18.477Z,25.95
2023-09-18T01:02:51.497Z,27.10
2023-09-18T01:03:24.221Z,26.83
2023-09-18T01:03:57.134Z,23.33
2023-09-18T01:04:31.214Z,24.75
2023-09-18T01:05:04.015Z,24.63
2023-09-18T01:05:37.654Z,25.07
2023-09-18T01:06:10.239Z,25.33
2023-09-18T01:06:42.619Z,24.27
2023-09-18T01:07:16.932Z,27.00
2023-09-18T01:07:49.410Z,30.92
2023-09-18T01:08:21.856Z,29.75
2023-09-18T01:08:55.699Z,30.42
2023-09-18T01:09:28.006Z,33.40
2023-09-18T01:10:00.388Z,32.25
2023-09-18T01:10:37.222Z,32.65
2023-09-18T01:11:20.844Z,34.00
2023-09-18T01:12:03.500Z,41.35
2023-09-18T01:12:39.797Z,43.53
2023-09-18T01:13:17.405Z,40.05
2023-09-18T01:13:54.304Z,41.13
2023-09-18T01:14:47.228Z,38.15
2023-09-18T01:15:22.022Z,49.65
2023-09-18T01:16:02.263Z,37.20
2023-09-18T01:16:41.004Z,36.42
2023-09-18T01:17:16.728Z,24.70
2023-09-18T01:17:49.590Z,22.87
2023-09-18T01:18:22.269Z,23.70
2023-09-18T01:18:54.965Z,24.73
2023-09-18T01:19:38.020Z,26.33
2023-09-18T01:20:11.331Z,26.17
2023-09-18T01:20:44.885Z,23.58
2023-09-18T01:21:18.111Z,26.70
2023-09-18T01:21:50.588Z,24.15
2023-09-18T01:22:23.875Z,21.88
2023-09-18T01:22:56.393Z,23.42
2023-09-18T01:23:28.830Z,26.93
2023-09-18T01:24:01.396Z,25.75
2023-09-18T01:24:34.487Z,23.33
2023-09-18T01:25:08.299Z,24.80
2023-09-18T01:25:40.793Z,24.77
2023-09-18T01:26:13.162Z,22.35
2023-09-18T01:26:46.445Z,24.90
2023-09-18T01:27:19.463Z,23.52
2023-09-18T01:27:53.285Z,23.25
2023-09-18T01:28:26.011Z,21.85
2023-09-18T01:28:58.938Z,26.63
2023-09-18T01:29:32.081Z,24.23
2023-09-18T01:30:04.725Z,23.75
2023-09-18T01:30:39.770Z,26.92
2023-09-18T01:31:12.329Z,34.42
2023-09-18T01:31:45.976Z,23.30
2023-09-18T01:32:18.505Z,26.83
2023-09-18T01:32:51.076Z,23.40
2023-09-18T01:33:24.953Z,24.98
2023-09-18T01:33:58.172Z,24.65
2023-09-18T01:34:34.475Z,26.37
2023-09-18T01:35:08.951Z,40.33
2023-09-18T01:35:49.900Z,30.63
2023-09-18T01:36:22.236Z,37.08
2023-09-18T01:36:56.730Z,38.88
2023-09-18T01:37:30.628Z,42.85
2023-09-18T01:38:04.804Z,50.47
2023-09-18T01:38:38.245Z,51.63
2023-09-18T01:39:11.670Z,44.35
2023-09-18T01:39:45.407Z,33.10
2023-09-18T01:40:18.605Z,27.70
2023-09-18T01:40:51.948Z,23.45
2023-09-18T01:41:24.724Z,21.85
2023-09-18T01:41:57.266Z,25.17
2023-09-18T01:42:30.022Z,22.98
2023-09-18T01:43:02.395Z,23.25
2023-09-18T01:43:36.026Z,22.88
2023-09-18T01:44:09.710Z,25.20
2023-09-18T01:44:42.636Z,25.83
2023-09-18T01:45:15.157Z,24.80
2023-09-18T01:45:47.793Z,24.97
2023-09-18T01:46:20.664Z,25.95
2023-09-18T01:46:53.573Z,25.65
2023-09-18T01:47:26.412Z,27.88
2023-09-18T01:47:59.053Z,25.90
2023-09-18T01:48:31.376Z,22.92
2023-09-18T01:49:05.096Z,22.65
2023-09-18T01:49:38.205Z,26.30
2023-09-18T01:50:11.069Z,25.20
2023-09-18T01:50:43.492Z,22.95
2023-09-18T01:51:17.284Z,22.93
2023-09-18T01:51:50.488Z,21.38
2023-09-18T01:52:23.445Z,24.83
2023-09-18T01:52:55.957Z,24.63
2023-09-18T01:53:28.527Z,24.05
2023-09-18T01:54:01.375Z,24.40
2023-09-18T01:54:34.298Z,24.70
2023-09-18T01:55:07.308Z,23.40
2023-09-18T01:55:39.603Z,25.48
2023-09-18T01:56:12.038Z,23.35
2023-09-18T01:56:44.472Z,26.73
2023-09-18T01:57:16.799Z,25.50
2023-09-18T01:57:49.124Z,23.23
2023-09-18T01:58:21.527Z,24.45
2023-09-18T01:58:54.917Z,21.40
2023-09-18T01:59:28.119Z,24.55
2023-09-18T02:00:00.873Z,28.30
2023-09-18T02:00:34.186Z,27.63
2023-09-18T02:01:06.995Z,23.90
2023-09-18T02:01:39.903Z,26.23
2023-09-18T02:02:15.817Z,31.53
2023-09-18T02:02:56.968Z,30.08
2023-09-18T02:03:59.362Z,66.35
2023-09-18T02:04:41.011Z,42.22
2023-09-18T02:05:31.962Z,31.25
2023-09-18T02:06:05.064Z,28.45
2023-09-18T02:06:37.864Z,24.30
2023-09-18T02:07:10.711Z,27.58
2023-09-18T02:07:43.411Z,38.67
2023-09-18T02:08:16.008Z,27.60
2023-09-18T02:08:48.593Z,25.00
2023-09-18T02:09:21.029Z,24.52
2023-09-18T02:09:54.209Z,24.52
2023-09-18T02:10:26.526Z,26.48
2023-09-18T02:10:59.196Z,24.67
2023-09-18T02:11:31.751Z,23.27
2023-09-18T02:12:05.465Z,26.27
2023-09-18T02:12:38.282Z,24.15
2023-09-18T02:13:11.822Z,25.92
2023-09-18T02:13:46.394Z,24.33
2023-09-18T02:14:18.952Z,24.37
2023-09-18T02:14:51.992Z,22.67
2023-09-18T02:15:24.311Z,23.98
2023-09-18T02:15:57.053Z,24.25
2023-09-18T02:16:29.497Z,24.42
2023-09-18T02:17:02.758Z,24.52
2023-09-18T02:17:35.452Z,23.45
2023-09-18T02:18:07.962Z,22.48
2023-09-18T02:18:41.137Z,23.15
2023-09-18T02:19:18.322Z,27.48
2023-09-18T02:19:51.161Z,26.00
2023-09-18T02:20:23.648Z,22.55
2023-09-18T02:20:56.147Z,23.52
2023-09-18T02:21:28.617Z,23.75
2023-09-18T02:22:01.291Z,22.65
2023-09-18T02:22:34.145Z,24.23
2023-09-18T02:23:06.549Z,24.33
2023-09-18T02:23:39.162Z,25.02
2023-09-18T02:24:11.922Z,27.95
2023-09-18T02:24:44.213Z,26.10
2023-09-18T02:25:16.659Z,24.27
2023-09-18T02:25:56.684Z,23.58
2023-09-18T02:26:29.524Z,22.92
2023-09-18T02:27:01.925Z,27.95
2023-09-18T02:27:34.627Z,27.27
2023-09-18T02:28:07.418Z,24.35
2023-09-18T02:28:39.715Z,23.48
2023-09-18T02:29:13.063Z,22.60
2023-09-18T02:29:45.893Z,24.05
2023-09-18T02:30:20.495Z,27.67
2023-09-18T02:30:53.239Z,26.93
2023-09-18T02:31:25.716Z,24.70
2023-09-18T02:31:58.479Z,25.55
2023-09-18T02:32:32.150Z,24.45
2023-09-18T02:33:04.979Z,28.27
2023-09-18T02:33:38.247Z,26.35
2023-09-18T02:34:10.895Z,26.45
2023-09-18T02:34:44.573Z,30.45
2023-09-18T02:35:17.048Z,30.52
2023-09-18T02:35:49.596Z,31.63
2023-09-18T02:36:22.004Z,31.63
2023-09-18T02:36:55.574Z,33.05
2023-09-18T02:37:28.152Z,31.50
2023-09-18T02:38:02.091Z,28.40
2023-09-18T02:38:35.217Z,26.85
2023-09-18T02:39:08.074Z,27.63
2023-09-18T02:39:40.603Z,28.15
2023-09-18T02:40:14.178Z,27.10
2023-09-18T02:40:46.723Z,27.65
2023-09-18T02:41:19.568Z,26.60
2023-09-18T02:41:53.110Z,32.13
2023-09-18T02:42:25.392Z,27.83
2023-09-18T02:42:58.353Z,26.30
2023-09-18T02:43:31.412Z,27.55
2023-09-18T02:44:04.010Z,26.30
2023-09-18T02:44:36.869Z,27.40
2023-09-18T02:45:10.930Z,25.67
2023-09-18T02:45:43.501Z,25.92
2023-09-18T02:46:15.853Z,26.17
2023-09-18T02:46:48.253Z,25.90
2023-09-18T02:47:20.711Z,25.97
2023-09-18T02:47:53.125Z,24.10
2023-09-18T02:48:25.466Z,27.33
2023-09-18T02:48:58.729Z,26.27
2023-09-18T02:49:31.622Z,26.67
2023-09-18T02:50:05.556Z,25.90
2023-09-18T02:50:37.985Z,24.95
2023-09-18T02:51:10.489Z,27.35
2023-09-18T02:51:42.783Z,25.60
2023-09-18T02:52:15.256Z,22.20
2023-09-18T02:52:47.547Z,26.33
2023-09-18T02:53:21.377Z,23.65
2023-09-18T02:53:53.696Z,24.13
2023-09-18T02:54:26.051Z,24.67
2023-09-18T02:54:59.257Z,23.50
2023-09-18T02:55:31.674Z,23.83
2023-09-18T02:56:04.176Z,24.45
2023-09-18T02:56:36.540Z,22.95
2023-09-18T02:57:08.907Z,23.67
2023-09-18T02:57:41.816Z,23.90
2023-09-18T02:58:14.275Z,26.00
2023-09-18T02:58:46.598Z,24.40
2023-09-18T02:59:19.020Z,23.05
2023-09-18T02:59:51.847Z,27.00
2023-09-18T03:00:41.038Z,25.05
2023-09-18T03:01:15.419Z,24.65
2023-09-18T03:01:48.248Z,22.80
2023-09-18T03:02:20.679Z,24.70
2023-09-18T03:02:53.267Z,24.90
2023-09-18T03:03:26.618Z,24.70
2023-09-18T03:03:59.178Z,24.80
2023-09-18T03:04:32.630Z,24.55
2023-09-18T03:05:05.885Z,26.58
2023-09-18T03:05:38.713Z,25.88
2023-09-18T03:06:12.788Z,25.52
2023-09-18T03:06:45.282Z,24.98
2023-09-18T03:07:17.787Z,23.83
2023-09-18T03:07:50.553Z,24.50
2023-09-18T03:08:22.976Z,26.73
2023-09-18T03:08:55.644Z,24.40
2023-09-18T03:09:28.170Z,24.13
2023-09-18T03:10:00.465Z,22.83
2023-09-18T03:10:36.890Z,26.73
2023-09-18T03:11:13.105Z,30.88
2023-09-18T03:11:45.572Z,24.75
2023-09-18T03:12:17.875Z,25.77
2023-09-18T03:12:50.505Z,27.65
2023-09-18T03:13:23.167Z,23.60
2023-09-18T03:13:55.584Z,24.42
2023-09-18T03:14:28.096Z,24.05
2023-09-18T03:15:00.720Z,22.60
2023-09-18T03:15:33.474Z,23.65
2023-09-18T03:16:05.977Z,24.23
2023-09-18T03:16:38.377Z,27.30
2023-09-18T03:17:11.894Z,25.70
2023-09-18T03:17:44.466Z,26.95
2023-09-18T03:18:17.049Z,27.10
2023-09-18T03:18:50.511Z,32.95
2023-09-18T03:19:23.663Z,26.15
2023-09-18T03:19:56.529Z,32.38
2023-09-18T03:20:30.173Z,33.17
2023-09-18T03:21:02.783Z,31.45
2023-09-18T03:21:36.997Z,24.55
2023-09-18T03:22:09.432Z,26.48
2023-09-18T03:22:41.890Z,29.88
2023-09-18T03:23:14.611Z,26.63
2023-09-18T03:23:47.194Z,26.55
2023-09-18T03:24:19.848Z,26.92
2023-09-18T03:24:52.148Z,27.48
2023-09-18T03:25:24.845Z,28.27
2023-09-18T03:25:57.169Z,24.23
2023-09-18T03:26:29.633Z,23.67
2023-09-18T03:27:02.545Z,27.58
2023-09-18T03:27:34.997Z,29.38
2023-09-18T03:28:08.080Z,29.60
2023-09-18T03:28:40.824Z,35.60
2023-09-18T03:29:13.542Z,25.85
2023-09-18T03:29:46.151Z,26.15
2023-09-18T03:30:20.277Z,26.27
2023-09-18T03:30:53.182Z,26.05
2023-09-18T03:31:28.907Z,28.97
2023-09-18T03:32:01.780Z,29.45
2023-09-18T03:32:34.305Z,30.58
2023-09-18T03:33:07.079Z,31.55
2023-09-18T03:33:39.463Z,29.02
2023-09-18T03:34:11.749Z,25.83
2023-09-18T03:34:44.249Z,28.58
2023-09-18T03:35:19.851Z,28.65
2023-09-18T03:35:56.207Z,39.88
2023-09-18T03:36:32.048Z,34.40
2023-09-18T03:37:04.555Z,29.83
2023-09-18T03:37:36.939Z,30.25
2023-09-18T03:38:09.391Z,34.80
2023-09-18T03:38:41.882Z,27.88
2023-09-18T03:39:14.240Z,23.35
2023-09-18T03:39:46.618Z,27.75
2023-09-18T03:40:20.017Z,24.05
2023-09-18T03:40:53.178Z,36.60
2023-09-18T03:41:26.045Z,37.13
2023-09-18T03:41:58.427Z,38.47
2023-09-18T03:42:30.944Z,42.60
2023-09-18T03:43:03.512Z,36.72
2023-09-18T03:43:36.067Z,38.70
2023-09-18T03:44:08.562Z,41.20
2023-09-18T03:44:41.261Z,38.65
2023-09-18T03:45:14.192Z,38.55
2023-09-18T03:45:47.032Z,43.15
2023-09-18T03:46:19.458Z,31.60
2023-09-18T03:46:55.115Z,26.55
2023-09-18T03:47:27.515Z,26.10
2023-09-18T03:48:00.201Z,27.23
2023-09-18T03:48:37.806Z,28.10
2023-09-18T03:49:10.523Z,28.38
2023-09-18T03:49:44.078Z,25.17
2023-09-18T03:50:17.404Z,40.20
2023-09-18T03:50:49.902Z,32.20
2023-09-18T03:51:22.257Z,26.48
2023-09-18T03:51:54.877Z,25.60
2023-09-18T03:52:28.969Z,25.83
2023-09-18T03:53:01.487Z,27.80
2023-09-18T03:53:34.697Z,25.43
2023-09-18T03:54:07.267Z,26.55
2023-09-18T03:54:40.260Z,25.55
2023-09-18T03:55:12.894Z,24.50
2023-09-18T03:55:45.412Z,26.13
2023-09-18T03:56:18.217Z,25.55
2023-09-18T03:56:50.633Z,26.58
2023-09-18T03:57:23.128Z,24.92
2023-09-18T03:57:55.559Z,25.35
2023-09-18T03:58:28.325Z,30.25
2023-09-18T03:59:02.467Z,30.97
2023-09-18T03:59:35.481Z,34.38
2023-09-18T04:00:09.378Z,47.92
2023-09-18T04:00:45.624Z,43.58
2023-09-18T04:01:18.455Z,54.47
2023-09-18T04:01:52.014Z,55.90
2023-09-18T04:02:25.442Z,61.92
2023-09-18T04:02:58.277Z,43.33
2023-09-18T04:03:33.453Z,40.38
2023-09-18T04:04:06.106Z,25.90
2023-09-18T04:04:38.706Z,30.37
2023-09-18T04:05:11.188Z,27.60
2023-09-18T04:05:44.112Z,26.15
2023-09-18T04:06:16.561Z,36.75
2023-09-18T04:06:49.064Z,28.08
2023-09-18T04:07:21.896Z,27.83
2023-09-18T04:07:54.201Z,32.38
2023-09-18T04:08:27.543Z,34.90
2023-09-18T04:09:00.467Z,43.90
2023-09-18T04:09:33.265Z,42.15
2023-09-18T04:10:07.008Z,40.13
2023-09-18T04:10:39.403Z,26.20
2023-09-18T04:11:12.052Z,26.95
2023-09-18T04:11:44.559Z,28.20
2023-09-18T04:12:17.139Z,30.13
2023-09-18T04:12:51.920Z,23.58
2023-09-18T04:13:24.663Z,23.88
2023-09-18T04:13:57.117Z,29.55
2023-09-18T04:14:29.583Z,26.70
2023-09-18T04:15:02.177Z,30.65
2023-09-18T04:15:39.013Z,26.73
2023-09-18T04:16:15.083Z,26.65
2023-09-18T04:16:47.465Z,26.00
2023-09-18T04:17:20.017Z,28.17
2023-09-18T04:17:52.756Z,27.13
2023-09-18T04:18:25.554Z,27.92
2023-09-18T04:18:58.199Z,26.75
2023-09-18T04:19:30.851Z,28.42
2023-09-18T04:20:05.831Z,27.73
2023-09-18T04:20:39.089Z,28.55
2023-09-18T04:21:11.760Z,53.97
2023-09-18T04:21:44.155Z,35.65
2023-09-18T04:22:16.754Z,32.80
2023-09-18T04:22:52.509Z,31.33
2023-09-18T04:23:26.471Z,34.15
2023-09-18T04:24:00.017Z,25.98
2023-09-18T04:24:33.125Z,26.90
2023-09-18T04:25:06.758Z,26.45
2023-09-18T04:25:39.287Z,23.90
2023-09-18T04:26:17.341Z,29.60
2023-09-18T04:26:51.985Z,30.70
2023-09-18T04:27:24.459Z,33.60
2023-09-18T04:27:57.453Z,45.83
2023-09-18T04:28:29.807Z,30.60
2023-09-18T04:29:03.589Z,52.85
2023-09-18T04:29:37.311Z,62.42
2023-09-18T04:30:13.118Z,55.97
2023-09-18T04:30:45.571Z,55.92
2023-09-18T04:31:18.103Z,62.83
2023-09-18T04:31:50.627Z,38.38
2023-09-18T04:32:23.393Z,44.07
2023-09-18T04:32:55.957Z,33.42
2023-09-18T04:33:30.599Z,37.20
2023-09-18T04:34:04.485Z,54.95
2023-09-18T04:34:36.848Z,42.88
2023-09-18T04:35:10.145Z,39.10
2023-09-18T04:35:42.897Z,35.30
2023-09-18T04:36:15.457Z,35.75
2023-09-18T04:36:48.496Z,39.58
2023-09-18T04:37:21.123Z,43.10
2023-09-18T04:37:57.781Z,50.07
2023-09-18T04:38:30.211Z,56.88
2023-09-18T04:39:02.744Z,53.22
2023-09-18T04:39:35.744Z,41.95
2023-09-18T04:40:11.628Z,31.40
2023-09-18T04:40:47.138Z,37.03
2023-09-18T04:41:20.112Z,37.53
2023-09-18T04:41:52.638Z,43.17
2023-09-18T04:42:25.233Z,43.58
2023-09-18T04:42:57.579Z,44.10
2023-09-18T04:43:32.997Z,52.03
2023-09-18T04:44:07.089Z,48.08
2023-09-18T04:44:40.426Z,30.95
2023-09-18T04:45:12.823Z,30.73
2023-09-18T04:45:46.017Z,44.75
2023-09-18T04:46:19.733Z,37.30
2023-09-18T04:46:52.370Z,53.53
2023-09-18T04:47:25.217Z,46.45
2023-09-18T04:47:57.917Z,47.20
2023-09-18T04:48:31.184Z,53.28
2023-09-18T04:49:05.270Z,60.27
2023-09-18T04:49:39.450Z,59.58
2023-09-18T04:50:13.659Z,58.15
2023-09-18T04:50:47.327Z,62.03
2023-09-18T04:51:19.688Z,52.38
2023-09-18T04:51:52.137Z,47.35
2023-09-18T04:52:24.443Z,55.53
2023-09-18T04:52:59.250Z,37.83
2023-09-18T04:53:33.722Z,38.90
2023-09-18T04:54:06.906Z,25.67
2023-09-18T04:54:40.288Z,43.60
2023-09-18T04:55:14.380Z,57.75
2023-09-18T04:55:50.657Z,43.38
2023-09-18T04:56:23.094Z,47.50
2023-09-18T04:56:55.773Z,37.08
2023-09-18T04:57:28.223Z,39.53
2023-09-18T04:58:00.979Z,40.92
2023-09-18T04:58:34.322Z,48.10
2023-09-18T04:59:06.630Z,60.92
2023-09-18T04:59:39.168Z,63.35
2023-09-18T05:00:17.043Z,63.03
2023-09-18T05:00:56.706Z,67.63
2023-09-18T05:01:29.525Z,62.70
2023-09-18T05:02:01.855Z,27.02
2023-09-18T05:02:35.798Z,27.95
2023-09-18T05:03:09.903Z,36.85
2023-09-18T05:03:43.786Z,41.92
2023-09-18T05:04:18.266Z,56.20
2023-09-18T05:04:52.208Z,51.42
2023-09-18T05:05:25.050Z,59.33
2023-09-18T05:05:57.589Z,51.43
2023-09-18T05:06:30.288Z,50.45
2023-09-18T05:07:05.915Z,55.95
2023-09-18T05:07:46.959Z,58.15
2023-09-18T05:08:19.517Z,59.38
2023-09-18T05:08:53.558Z,69.40
2023-09-18T05:09:26.699Z,59.33
2023-09-18T05:09:59.245Z,49.42
2023-09-18T05:10:32.019Z,46.85
2023-09-18T05:11:05.108Z,44.40
2023-09-18T05:11:37.906Z,25.57
2023-09-18T05:12:14.974Z,34.20
2023-09-18T05:12:47.427Z,41.03
2023-09-18T05:13:19.794Z,43.90
2023-09-18T05:13:52.138Z,30.17
2023-09-18T05:14:24.538Z,34.80
2023-09-18T05:14:57.865Z,31.52
2023-09-18T05:15:31.987Z,39.88
2023-09-18T05:16:05.550Z,53.38
2023-09-18T05:16:38.045Z,38.92
2023-09-18T05:17:11.833Z,36.60
2023-09-18T05:17:45.824Z,46.70
2023-09-18T05:18:18.429Z,43.67
2023-09-18T05:18:51.009Z,51.92
2023-09-18T05:19:23.977Z,52.03
2023-09-18T05:19:56.281Z,42.97
2023-09-18T05:20:29.868Z,39.08
2023-09-18T05:21:03.580Z,59.25
2023-09-18T05:21:36.071Z,65.25
2023-09-18T05:22:09.485Z,35.10
2023-09-18T05:22:41.994Z,45.67
2023-09-18T05:23:17.049Z,28.73
2023-09-18T05:23:51.151Z,39.97
2023-09-18T05:24:28.425Z,49.05
2023-09-18T05:25:00.703Z,65.60
2023-09-18T05:25:34.727Z,36.55
2023-09-18T05:26:07.138Z,49.38
2023-09-18T05:26:39.987Z,36.08
2023-09-18T05:27:13.833Z,32.83
2023-09-18T05:27:46.543Z,51.45
2023-09-18T05:28:19.276Z,33.47
2023-09-18T05:28:52.871Z,51.55
2023-09-18T05:29:25.472Z,59.28
2023-09-18T05:29:57.861Z,51.63
2023-09-18T05:30:32.941Z,37.33
2023-09-18T05:31:05.534Z,30.17
2023-09-18T05:31:38.660Z,26.98
2023-09-18T05:32:11.009Z,26.00
2023-09-18T05:32:44.958Z,25.77
2023-09-18T05:33:17.359Z,28.15
2023-09-18T05:33:50.133Z,28.80
2023-09-18T05:34:22.443Z,31.33
2023-09-18T05:34:55.222Z,41.60
2023-09-18T05:35:27.491Z,72.32
2023-09-18T05:35:59.885Z,67.85
2023-09-18T05:36:33.149Z,49.72
2023-09-18T05:37:05.772Z,40.22
2023-09-18T05:37:39.713Z,26.95
2023-09-18T05:38:14.845Z,29.92
2023-09-18T05:38:47.613Z,32.95
2023-09-18T05:39:20.029Z,27.70
2023-09-18T05:39:52.463Z,52.33
2023-09-18T05:40:25.448Z,56.30
2023-09-18T05:41:06.387Z,61.25
2023-09-18T05:41:38.778Z,63.47
2023-09-18T05:42:12.717Z,60.55
2023-09-18T05:42:47.164Z,35.15
2023-09-18T05:43:19.773Z,55.45
2023-09-18T05:43:52.129Z,49.88
2023-09-18T05:44:24.534Z,61.67
2023-09-18T05:44:57.390Z,67.53
2023-09-18T05:45:30.365Z,49.95
2023-09-18T05:46:03.563Z,40.13
2023-09-18T05:46:38.870Z,60.63
2023-09-18T05:47:11.577Z,38.33
2023-09-18T05:47:44.574Z,42.25
2023-09-18T05:48:17.048Z,52.33
2023-09-18T05:48:49.673Z,65.95
2023-09-18T05:49:22.314Z,49.33
2023-09-18T05:49:54.801Z,37.88
2023-09-18T05:50:29.306Z,39.90
2023-09-18T05:51:02.098Z,45.50
2023-09-18T05:51:35.011Z,45.50
2023-09-18T05:52:07.489Z,53.60
2023-09-18T05:52:41.073Z,55.90
2023-09-18T05:53:13.589Z,61.00
2023-09-18T05:53:46.476Z,31.63
2023-09-18T05:54:18.927Z,28.23
2023-09-18T05:54:51.315Z,29.30
2023-09-18T05:55:23.836Z,33.25
2023-09-18T05:56:00.471Z,29.87
2023-09-18T05:56:32.898Z,53.88
2023-09-18T05:57:05.771Z,47.35
2023-09-18T05:57:38.630Z,51.60
2023-09-18T05:58:10.975Z,60.05
2023-09-18T05:58:43.287Z,61.25
2023-09-18T05:59:18.319Z,63.33
2023-09-18T05:59:51.017Z,56.85
2023-09-18T06:00:23.781Z,44.97
2023-09-18T06:00:56.194Z,48.85
2023-09-18T06:01:29.236Z,45.47
2023-09-18T06:02:01.559Z,50.65
2023-09-18T06:02:34.095Z,54.42
2023-09-18T06:03:07.574Z,28.35
2023-09-18T06:03:40.941Z,28.83
2023-09-18T06:04:14.340Z,51.90
2023-09-18T06:04:46.967Z,57.42
2023-09-18T06:05:22.652Z,32.33
2023-09-18T06:05:55.050Z,26.75
2023-09-18T06:06:27.576Z,30.42
2023-09-18T06:07:00.243Z,32.83
2023-09-18T06:07:32.592Z,28.55
2023-09-18T06:08:04.934Z,29.83
2023-09-18T06:08:37.825Z,28.38
2023-09-18T06:09:10.214Z,28.40
2023-09-18T06:09:42.597Z,27.33
2023-09-18T06:10:15.397Z,24.70
2023-09-18T06:10:47.804Z,24.48
2023-09-18T06:11:20.524Z,26.48
2023-09-18T06:11:52.939Z,30.27
2023-09-18T06:12:26.251Z,25.43
2023-09-18T06:13:00.089Z,28.58
2023-09-18T06:13:32.908Z,30.15
2023-09-18T06:14:05.344Z,28.50
2023-09-18T06:14:39.529Z,30.13
2023-09-18T06:15:12.850Z,26.73
2023-09-18T06:15:45.281Z,26.08
2023-09-18T06:16:17.733Z,27.63
2023-09-18T06:16:50.214Z,37.90
2023-09-18T06:17:22.747Z,30.15
2023-09-18T06:17:56.386Z,43.33
2023-09-18T06:18:28.934Z,38.35
2023-09-18T06:19:01.551Z,35.80
2023-09-18T06:19:35.264Z,30.33
2023-09-18T06:20:11.543Z,31.73
2023-09-18T06:20:46.377Z,32.92
2023-09-18T06:21:18.710Z,27.98
2023-09-18T06:21:52.108Z,27.40
2023-09-18T06:22:24.471Z,26.48
2023-09-18T06:22:56.904Z,27.38
2023-09-18T06:23:29.271Z,30.57
2023-09-18T06:24:01.778Z,35.45
2023-09-18T06:24:34.302Z,30.20
2023-09-18T06:25:07.049Z,29.35
2023-09-18T06:25:39.973Z,29.80
2023-09-18T06:26:12.502Z,28.15
2023-09-18T06:26:45.051Z,25.60
2023-09-18T06:27:17.529Z,28.45
2023-09-18T06:27:49.883Z,27.52
2023-09-18T06:28:22.222Z,26.33
2023-09-18T06:28:57.393Z,28.23
2023-09-18T06:29:30.458Z,28.48
2023-09-18T06:30:02.962Z,25.58
2023-09-18T06:30:37.775Z,25.58
2023-09-18T06:31:10.346Z,27.35
2023-09-18T06:31:43.180Z,29.35
2023-09-18T06:32:15.702Z,23.02
2023-09-18T06:32:48.430Z,25.67
2023-09-18T06:33:21.116Z,23.10
2023-09-18T06:33:53.617Z,26.75
2023-09-18T06:34:26.366Z,25.30
2023-09-18T06:35:02.012Z,27.58
2023-09-18T06:35:36.119Z,28.75
2023-09-18T06:36:08.452Z,31.10
2023-09-18T06:36:41.739Z,35.85
2023-09-18T06:37:14.110Z,31.55
2023-09-18T06:37:46.419Z,29.25
2023-09-18T06:38:18.913Z,28.27
2023-09-18T06:38:51.892Z,33.42
2023-09-18T06:39:25.390Z,30.08
2023-09-18T06:40:00.642Z,27.17
2023-09-18T06:40:33.121Z,26.88
2023-09-18T06:41:05.726Z,25.63
2023-09-18T06:41:38.282Z,26.25
2023-09-18T06:42:11.344Z,26.95
2023-09-18T06:42:44.103Z,30.10
2023-09-18T06:43:18.277Z,30.77
2023-09-18T06:43:50.747Z,30.58
2023-09-18T06:44:25.154Z,24.85
2023-09-18T06:44:57.781Z,26.45
2023-09-18T06:45:30.248Z,28.67
2023-09-18T06:46:02.553Z,24.52
2023-09-18T06:46:34.901Z,29.17
2023-09-18T06:47:07.393Z,25.02
2023-09-18T06:47:41.616Z,24.98
2023-09-18T06:48:15.537Z,24.00
2023-09-18T06:48:51.216Z,24.80
2023-09-18T06:49:23.770Z,24.27
2023-09-18T06:49:56.070Z,24.95
2023-09-18T06:50:28.684Z,26.10
2023-09-18T06:51:03.787Z,25.40
2023-09-18T06:51:43.054Z,23.02
2023-09-18T06:52:16.500Z,26.52
2023-09-18T06:52:49.088Z,28.45
2023-09-18T06:53:21.835Z,26.95
2023-09-18T06:53:54.313Z,24.92
2023-09-18T06:54:26.696Z,24.65
2023-09-18T06:54:59.239Z,24.95
2023-09-18T06:55:31.538Z,26.50
2023-09-18T06:56:04.122Z,25.20
2023-09-18T06:56:36.500Z,25.67
2023-09-18T06:57:08.824Z,25.13
2023-09-18T06:57:42.554Z,28.23
2023-09-18T06:58:15.057Z,26.77
2023-09-18T06:58:49.195Z,25.42
2023-09-18T06:59:21.539Z,21.52
2023-09-18T06:59:54.366Z,24.08
2023-09-18T07:00:26.749Z,23.52
2023-09-18T07:00:59.665Z,21.13
2023-09-18T07:01:33.216Z,25.42
2023-09-18T07:02:05.842Z,26.13
2023-09-18T07:02:38.301Z,25.05
2023-09-18T07:03:11.474Z,26.75
2023-09-18T07:03:44.084Z,25.20
2023-09-18T07:04:16.696Z,23.55
2023-09-18T07:04:49.194Z,24.45
2023-09-18T07:05:21.619Z,23.98
2023-09-18T07:05:54.736Z,22.85
2023-09-18T07:06:27.035Z,23.73
2023-09-18T07:06:59.452Z,24.55
2023-09-18T07:07:32.169Z,23.03
2023-09-18T07:08:06.754Z,24.52
2023-09-18T07:08:39.203Z,22.23
2023-09-18T07:09:13.601Z,22.15
2023-09-18T07:10:03.755Z,23.65